Capitol Logistics 1153


EBLG
Liège Airport
Liege, BE
LFPG
Charles de Gaulle
Paris, FR

Activity Log

Date Flight Route Aircraft Duration
10/31/2019 CPX753 Not Available B738 0h 56m

Route Details

Aircraft Information
Primary: Boeing 737-800BCF
Backup: Not Available
Route Data
Distance: 149nm
Sched. Duration: 0h 35m
Avg. Duration: 0h 56m (+22m)
Times Flown: 1
Recm'd Route: Not Available
Planned Altitude: 15,000ft
Origin Wx: EBLG 061220Z 27014G25KT 240V320 9999 SCT045 19/06 Q1018 NOSIG
Dest. Wx: LFPG 061200Z 28015KT CAVOK 20/06 Q1021 NOSIG
Notes:

Financial History
Total Freight: 46,992lbs
Average Load: 46,992lbs/flt
Fuel Used: 6,010lbs
Avg. Fuel Used: 6,010lbs/flt
Fuel Expense: $6,671
Avg. Fuel Expense: $6,671
Avg. Fuel Cost: $1.11/lbs
Total Gross Income: $93,984
Pilot Pay: $229
Total Expenses: $10,202
Total Revenue: $76,865
Average Revenue: $93,984.00